Time;durP1;ratioP1;P1;durP2;ratioP2;P2;SDS_P1;SDS_P2;PMS_P1;PMS_P2;Temp;Humidity;BMP_temperature;BMP_pressure;BME280_temperature;BME280_humidity;BME280_pressure;Samples;Min_cycle;Max_cycle;Signal;HPM_P1;HPM_P2
2021/12/27 00:00:17;;;;;;;9.10;6.28;;;;;10.10;100035.00;;;;5108650;28;20197;-83
2021/12/27 00:02:47;;;;;;;8.20;5.72;;;;;10.10;100039.00;;;;5109107;28;20197;-83
2021/12/27 00:05:15;;;;;;;10.05;5.43;;;;;10.10;100037.00;;;;5109679;28;20224;-83
2021/12/27 00:07:43;;;;;;;8.35;5.88;;;;;10.10;100035.00;;;;5109509;28;20212;-83
2021/12/27 00:10:13;;;;;;;7.70;5.45;;;;;10.10;100035.00;;;;5109498;28;20633;-83
2021/12/27 00:12:41;;;;;;;9.98;5.30;;;;;10.10;100032.00;;;;5126045;27;20188;-83
2021/12/27 00:15:09;;;;;;;6.88;5.35;;;;;10.10;100041.00;;;;5134388;27;20216;-83
2021/12/27 00:17:39;;;;;;;9.05;5.80;;;;;10.10;100036.00;;;;5128959;27;20200;-83
2021/12/27 00:20:08;;;;;;;8.13;5.50;;;;;10.10;100046.00;;;;5129567;27;20578;-84
2021/12/27 00:22:35;;;;;;;9.23;5.85;;;;;10.10;100048.00;;;;5129625;27;20590;-83
2021/12/27 00:25:03;;;;;;;7.60;5.63;;;;;10.10;100043.00;;;;5110359;27;20201;-83
2021/12/27 00:27:30;;;;;;;9.57;6.10;;;;;10.10;100043.00;;;;5108500;28;20691;-83
2021/12/27 00:29:57;;;;;;;9.45;5.68;;;;;10.10;100037.00;;;;5109214;28;20233;-83
2021/12/27 00:32:25;;;;;;;7.55;5.25;;;;;10.10;100032.00;;;;5108921;28;20197;-83
2021/12/27 00:34:52;;;;;;;9.15;5.68;;;;;10.10;100021.00;;;;5109046;28;20206;-83
2021/12/27 00:37:21;;;;;;;11.13;6.38;;;;;10.10;100021.00;;;;5108208;28;20232;-83
2021/12/27 00:39:48;;;;;;;8.27;5.40;;;;;10.10;100018.00;;;;5108421;28;20216;-83
2021/12/27 00:42:15;;;;;;;10.35;6.13;;;;;10.10;100016.00;;;;5109869;27;20205;-83
2021/12/27 00:44:43;;;;;;;7.85;5.82;;;;;10.10;100010.00;;;;5108222;28;20198;-83
2021/12/27 00:47:10;;;;;;;9.82;6.03;;;;;10.10;100010.00;;;;5108746;28;20638;-83
2021/12/27 00:49:37;;;;;;;8.50;5.70;;;;;10.10;100000.00;;;;5108223;28;20231;-83
2021/12/27 00:52:05;;;;;;;7.88;5.60;;;;;10.10;99996.00;;;;5108969;28;20201;-83
2021/12/27 00:54:33;;;;;;;8.82;5.88;;;;;10.10;99993.00;;;;5109175;28;20254;-82
2021/12/27 00:57:01;;;;;;;8.45;5.78;;;;;10.10;99989.00;;;;5109136;28;20217;-82
2021/12/27 00:59:28;;;;;;;8.05;5.25;;;;;10.10;99995.00;;;;5128770;28;20208;-82
2021/12/27 01:01:56;;;;;;;8.80;5.90;;;;;10.10;99992.00;;;;5128537;28;20647;-81
2021/12/27 01:04:24;;;;;;;8.10;5.80;;;;;10.10;99986.00;;;;5129530;28;20284;-83
2021/12/27 01:06:51;;;;;;;11.27;5.97;;;;;10.10;99989.00;;;;5129095;28;20209;-82
2021/12/27 01:09:29;;;;;;;9.30;6.15;;;;;10.10;99991.00;;;;5128690;28;20600;-82
2021/12/27 01:12:11;;;;;;;8.70;5.43;;;;;10.10;99990.00;;;;5128829;28;20201;-84
2021/12/27 01:14:40;;;;;;;8.93;5.75;;;;;10.10;99987.00;;;;5127857;28;20200;-82
2021/12/27 01:17:07;;;;;;;9.95;5.85;;;;;10.10;99988.00;;;;5128205;28;20211;-82
2021/12/27 01:19:35;;;;;;;10.25;6.68;;;;;10.10;99987.00;;;;5128509;28;20207;-82
2021/12/27 01:22:02;;;;;;;11.70;6.05;;;;;10.10;99973.00;;;;5132628;27;20188;-83
2021/12/27 01:24:29;;;;;;;7.82;5.80;;;;;10.10;99979.00;;;;5123315;27;20213;-83
2021/12/27 01:27:01;;;;;;;7.72;5.68;;;;;10.10;99977.00;;;;5108178;28;20589;-82
2021/12/27 01:29:28;;;;;;;11.65;6.53;;;;;10.10;99973.00;;;;5107458;28;20711;-83
2021/12/27 01:31:55;;;;;;;9.48;6.20;;;;;10.10;99967.00;;;;5116503;28;20203;-82
2021/12/27 01:34:25;;;;;;;8.65;5.40;;;;;10.10;99969.00;;;;5128668;28;20655;-82
2021/12/27 01:36:56;;;;;;;8.75;5.38;;;;;10.10;99974.00;;;;5128857;27;20576;-83
2021/12/27 01:39:24;;;;;;;8.80;5.65;;;;;10.10;99973.00;;;;5132481;27;20745;-82
2021/12/27 01:41:51;;;;;;;8.18;5.30;;;;;10.10;99975.00;;;;5132308;27;20231;-83
2021/12/27 01:44:20;;;;;;;9.38;5.82;;;;;10.10;99966.00;;;;5132395;27;20212;-83
2021/12/27 01:46:47;;;;;;;9.98;5.85;;;;;10.10;99965.00;;;;5112091;27;20204;-82
2021/12/27 01:49:14;;;;;;;8.70;5.88;;;;;10.10;99968.00;;;;5112592;27;20225;-82
2021/12/27 01:51:41;;;;;;;8.70;5.70;;;;;10.10;99963.00;;;;5111940;28;20208;-82
2021/12/27 01:54:09;;;;;;;7.20;4.90;;;;;10.10;99954.00;;;;5113457;28;20196;-83
2021/12/27 01:56:36;;;;;;;8.80;5.68;;;;;10.20;99954.00;;;;5111004;28;20233;-83
2021/12/27 01:59:04;;;;;;;8.98;5.13;;;;;10.20;99951.00;;;;5111718;28;20198;-83
2021/12/27 02:01:32;;;;;;;9.32;5.97;;;;;10.20;99948.00;;;;5111038;28;20201;-82
2021/12/27 02:04:00;;;;;;;7.47;5.03;;;;;10.20;99960.00;;;;5111544;28;20578;-83
2021/12/27 02:06:27;;;;;;;8.82;6.10;;;;;10.20;99963.00;;;;5111347;27;20206;-83
2021/12/27 02:08:55;;;;;;;9.63;5.15;;;;;10.20;99961.00;;;;5111240;28;20230;-83
2021/12/27 02:11:22;;;;;;;8.43;5.50;;;;;10.20;99968.00;;;;5111353;28;20194;-84
2021/12/27 02:13:50;;;;;;;7.20;4.63;;;;;10.20;99966.00;;;;5111217;28;20198;-83
2021/12/27 02:16:18;;;;;;;8.25;5.30;;;;;10.20;99963.00;;;;5119453;27;20205;-83
2021/12/27 02:18:48;;;;;;;9.00;5.38;;;;;10.20;99964.00;;;;5131888;27;20219;-83
2021/12/27 02:21:17;;;;;;;7.72;5.43;;;;;10.20;99961.00;;;;5132147;27;20205;-83
2021/12/27 02:23:45;;;;;;;9.93;5.68;;;;;10.20;99959.00;;;;5115855;27;20197;-83
2021/12/27 02:26:12;;;;;;;7.68;5.35;;;;;10.20;99958.00;;;;5118204;27;20213;-83
2021/12/27 02:28:40;;;;;;;7.80;5.63;;;;;10.20;99951.00;;;;5131044;27;20205;-83
2021/12/27 02:31:08;;;;;;;7.47;5.50;;;;;10.20;99955.00;;;;5131207;27;20204;-83
2021/12/27 02:33:38;;;;;;;7.68;5.13;;;;;10.20;99949.00;;;;5136192;27;20196;-83
2021/12/27 02:36:06;;;;;;;8.02;5.15;;;;;10.20;99937.00;;;;5139268;27;20200;-83
2021/12/27 02:38:37;;;;;;;9.57;5.80;;;;;10.20;99940.00;;;;5131782;27;20305;-83
2021/12/27 02:41:04;;;;;;;8.93;5.50;;;;;10.30;99931.00;;;;5113526;27;20197;-83
2021/12/27 02:43:33;;;;;;;9.68;5.78;;;;;10.30;99936.00;;;;5110512;28;20198;-83
2021/12/27 02:46:03;;;;;;;12.32;5.45;;;;;10.30;99928.00;;;;5110876;28;20208;-83
2021/12/27 02:48:32;;;;;;;10.30;6.13;;;;;10.30;99925.00;;;;5111104;28;20197;-84
2021/12/27 02:51:00;;;;;;;8.38;5.18;;;;;10.30;99928.00;;;;5111142;28;20229;-83
2021/12/27 02:53:28;;;;;;;8.90;5.93;;;;;10.30;99926.00;;;;5110753;28;20674;-83
2021/12/27 02:55:58;;;;;;;7.97;5.18;;;;;10.30;99928.00;;;;5090568;28;20587;-83
2021/12/27 02:58:27;;;;;;;9.30;5.93;;;;;10.30;99934.00;;;;5090847;28;20202;-83
2021/12/27 03:00:58;;;;;;;8.02;4.90;;;;;10.30;99929.00;;;;5090549;28;20583;-83
2021/12/27 03:03:26;;;;;;;8.73;5.28;;;;;10.30;99925.00;;;;5090056;28;20213;-83
2021/12/27 03:05:53;;;;;;;8.32;5.68;;;;;10.40;99927.00;;;;5090613;28;20300;-83
2021/12/27 03:08:21;;;;;;;8.60;5.00;;;;;10.40;99920.00;;;;5090955;28;20202;-83
2021/12/27 03:10:51;;;;;;;9.05;5.80;;;;;10.40;99920.00;;;;5089635;28;20226;-83
2021/12/27 03:13:21;;;;;;;9.75;5.88;;;;;10.30;99918.00;;;;5092973;28;20205;-83
2021/12/27 03:15:51;;;;;;;7.72;5.63;;;;;10.30;99916.00;;;;5109989;28;20205;-83
2021/12/27 03:18:19;;;;;;;8.63;5.68;;;;;10.40;99912.00;;;;5110816;28;20202;-83
2021/12/27 03:20:47;;;;;;;10.07;5.75;;;;;10.40;99916.00;;;;5109961;28;20201;-83
2021/12/27 03:23:14;;;;;;;7.82;5.53;;;;;10.40;99912.00;;;;5110172;28;20213;-83
2021/12/27 03:25:41;;;;;;;8.98;5.47;;;;;10.40;99916.00;;;;5107726;28;20202;-84
2021/12/27 03:28:09;;;;;;;9.00;5.55;;;;;10.40;99913.00;;;;5090328;28;20201;-83
2021/12/27 03:30:37;;;;;;;7.65;4.97;;;;;10.40;99913.00;;;;5090254;28;20584;-83
2021/12/27 03:33:06;;;;;;;8.20;5.78;;;;;10.40;99917.00;;;;5090015;28;20201;-83
2021/12/27 03:35:38;;;;;;;7.97;5.65;;;;;10.50;99907.00;;;;5089707;28;20699;-84
2021/12/27 03:38:07;;;;;;;8.25;4.95;;;;;10.40;99910.00;;;;5089970;28;20226;-83
2021/12/27 03:40:35;;;;;;;9.20;6.00;;;;;10.40;99914.00;;;;5090003;28;20206;-84
2021/12/27 03:43:03;;;;;;;8.05;5.60;;;;;10.40;99913.00;;;;5091721;27;20198;-83
2021/12/27 03:45:33;;;;;;;10.15;5.38;;;;;10.40;99915.00;;;;5105741;27;20192;-83
2021/12/27 03:48:03;;;;;;;8.82;5.65;;;;;10.40;99903.00;;;;5094776;27;20214;-83
2021/12/27 03:50:30;;;;;;;9.25;4.95;;;;;10.50;99902.00;;;;5089556;28;20596;-83
2021/12/27 03:52:58;;;;;;;12.27;5.95;;;;;10.50;99908.00;;;;5090186;28;20221;-83
2021/12/27 03:55:26;;;;;;;7.18;4.75;;;;;10.50;99901.00;;;;5088459;28;20202;-83
2021/12/27 03:57:56;;;;;;;8.30;5.43;;;;;10.50;99896.00;;;;5089505;28;20209;-84
2021/12/27 04:00:33;;;;;;;6.75;4.53;;;;;10.50;99893.00;;;;5087905;28;20194;-83
2021/12/27 04:03:02;;;;;;;7.75;4.93;;;;;10.50;99895.00;;;;5088614;28;20250;-84
2021/12/27 04:05:30;;;;;;;6.22;4.68;;;;;10.50;99888.00;;;;5089152;28;20221;-84
2021/12/27 04:08:03;;;;;;;7.45;4.50;;;;;10.50;99885.00;;;;5089651;28;20237;-84
2021/12/27 04:10:31;;;;;;;6.68;4.57;;;;;10.60;99887.00;;;;5088991;28;20221;-83
2021/12/27 04:12:58;;;;;;;6.10;4.35;;;;;10.60;99883.00;;;;5089469;28;20198;-84
2021/12/27 04:15:26;;;;;;;6.40;4.25;;;;;10.60;99880.00;;;;5088455;28;20263;-83
2021/12/27 04:17:54;;;;;;;6.43;4.60;;;;;10.60;99875.00;;;;5088558;28;20225;-83
2021/12/27 04:20:23;;;;;;;5.65;4.03;;;;;10.60;99874.00;;;;5089461;28;20248;-84
2021/12/27 04:22:51;;;;;;;6.38;4.00;;;;;10.70;99878.00;;;;5089669;28;20198;-84
2021/12/27 04:25:20;;;;;;;6.80;4.50;;;;;10.70;99869.00;;;;5089152;28;20205;-84
2021/12/27 04:27:48;;;;;;;7.03;4.30;;;;;10.70;99869.00;;;;5088413;28;20217;-84
2021/12/27 04:30:16;;;;;;;6.57;4.30;;;;;10.70;99865.00;;;;5088517;28;20222;-84
2021/12/27 04:32:44;;;;;;;6.10;4.57;;;;;10.70;99864.00;;;;5088789;28;20240;-84
2021/12/27 04:35:12;;;;;;;6.05;4.20;;;;;10.70;99871.00;;;;5089253;28;20217;-84
2021/12/27 04:37:41;;;;;;;5.65;4.15;;;;;10.70;99867.00;;;;5088220;28;20233;-84
2021/12/27 04:40:12;;;;;;;7.78;4.18;;;;;10.70;99864.00;;;;5106434;28;20201;-84
2021/12/27 04:42:42;;;;;;;6.55;4.25;;;;;10.70;99869.00;;;;5109068;28;20205;-84
2021/12/27 04:45:11;;;;;;;6.53;4.28;;;;;10.80;99865.00;;;;5109247;28;20201;-85
2021/12/27 04:47:39;;;;;;;6.93;4.20;;;;;10.80;99859.00;;;;5109363;28;20202;-85
2021/12/27 04:50:06;;;;;;;5.00;3.58;;;;;10.80;99861.00;;;;5108753;28;20225;-84
2021/12/27 04:52:34;;;;;;;6.97;4.53;;;;;10.80;99860.00;;;;5109026;28;20197;-85
2021/12/27 04:55:03;;;;;;;6.90;4.32;;;;;10.80;99863.00;;;;5110592;28;20193;-84
2021/12/27 04:57:30;;;;;;;6.60;4.45;;;;;10.80;99859.00;;;;5106362;28;20213;-84
2021/12/27 04:59:57;;;;;;;6.72;4.43;;;;;10.80;99860.00;;;;5129363;28;20200;-85
2021/12/27 05:02:24;;;;;;;6.90;4.65;;;;;10.90;99855.00;;;;5129485;28;20201;-85
2021/12/27 05:04:52;;;;;;;7.30;4.50;;;;;10.90;99849.00;;;;5129146;28;20208;-84
2021/12/27 05:07:19;;;;;;;5.97;3.90;;;;;10.90;99848.00;;;;5130135;28;20621;-84
2021/12/27 05:09:46;;;;;;;8.40;4.13;;;;;10.90;99842.00;;;;5128846;28;20277;-85
2021/12/27 05:12:15;;;;;;;6.70;4.50;;;;;10.90;99835.00;;;;5127061;27;20205;-84
2021/12/27 05:14:42;;;;;;;7.03;4.45;;;;;10.90;99833.00;;;;5092782;28;20210;-85
2021/12/27 05:17:09;;;;;;;7.05;4.57;;;;;10.90;99828.00;;;;5105797;28;20205;-84
2021/12/27 05:19:36;;;;;;;7.15;4.68;;;;;10.90;99832.00;;;;5111527;28;20201;-84
2021/12/27 05:22:04;;;;;;;7.97;4.65;;;;;11.00;99828.00;;;;5112143;28;20198;-84
2021/12/27 05:24:31;;;;;;;6.13;4.72;;;;;11.00;99819.00;;;;5111962;28;20197;-84
2021/12/27 05:26:58;;;;;;;8.95;4.90;;;;;11.00;99812.00;;;;5098492;28;20552;-84
2021/12/27 05:29:27;;;;;;;7.00;4.65;;;;;11.00;99818.00;;;;5092645;28;20202;-84
2021/12/27 05:31:57;;;;;;;5.97;4.50;;;;;11.00;99820.00;;;;5092268;28;20242;-84
2021/12/27 05:34:25;;;;;;;9.82;4.88;;;;;11.00;99808.00;;;;5092627;28;20252;-84
2021/12/27 05:36:52;;;;;;;7.90;4.35;;;;;11.00;99808.00;;;;5091827;28;20660;-84
2021/12/27 05:39:21;;;;;;;6.93;4.55;;;;;11.00;99802.00;;;;5092167;28;20202;-84
2021/12/27 05:41:49;;;;;;;6.50;4.47;;;;;11.00;99805.00;;;;5091728;28;20208;-85
2021/12/27 05:44:18;;;;;;;6.35;4.50;;;;;11.00;99806.00;;;;5092616;28;20206;-84
2021/12/27 05:46:46;;;;;;;8.98;4.72;;;;;11.00;99812.00;;;;5091618;28;20757;-84
2021/12/27 05:49:15;;;;;;;8.90;5.05;;;;;11.10;99809.00;;;;5092550;28;20201;-83
2021/12/27 05:51:43;;;;;;;7.45;4.45;;;;;11.10;99806.00;;;;5091150;28;20312;-84
2021/12/27 05:54:12;;;;;;;8.43;4.80;;;;;11.00;99808.00;;;;5092007;28;20666;-84
2021/12/27 05:56:40;;;;;;;6.93;4.88;;;;;11.10;99812.00;;;;5091662;28;20638;-84
2021/12/27 05:59:07;;;;;;;7.32;4.72;;;;;11.10;99820.00;;;;5091830;28;20190;-84
2021/12/27 06:01:34;;;;;;;9.07;4.90;;;;;11.10;99820.00;;;;5091123;28;20221;-84
2021/12/27 06:04:03;;;;;;;7.10;4.32;;;;;11.10;99811.00;;;;5092679;28;20213;-84
2021/12/27 06:06:30;;;;;;;8.80;4.75;;;;;11.10;99821.00;;;;5109445;27;20194;-84
2021/12/27 06:08:58;;;;;;;7.80;4.82;;;;;11.10;99807.00;;;;5130039;27;20197;-84
2021/12/27 06:11:25;;;;;;;8.35;5.03;;;;;11.10;99817.00;;;;5131779;27;20232;-84
2021/12/27 06:13:52;;;;;;;8.20;5.07;;;;;11.10;99809.00;;;;5132580;27;20201;-84
2021/12/27 06:16:20;;;;;;;10.35;5.15;;;;;11.10;99808.00;;;;5125673;27;20209;-84
2021/12/27 06:18:47;;;;;;;8.18;5.32;;;;;11.10;99803.00;;;;5111698;28;20289;-84
2021/12/27 06:21:16;;;;;;;8.13;5.13;;;;;11.10;99813.00;;;;5100608;28;20683;-85
2021/12/27 06:23:44;;;;;;;9.10;5.45;;;;;11.20;99810.00;;;;5090524;28;20203;-85
2021/12/27 06:26:11;;;;;;;8.68;5.10;;;;;11.20;99817.00;;;;5090257;28;20209;-85
2021/12/27 06:28:38;;;;;;;7.75;4.78;;;;;11.20;99820.00;;;;5091290;28;20191;-85
2021/12/27 06:31:06;;;;;;;6.60;4.53;;;;;11.20;99828.00;;;;5091503;28;20222;-85
2021/12/27 06:33:34;;;;;;;7.25;4.93;;;;;11.20;99825.00;;;;5090108;28;20222;-85
2021/12/27 06:36:01;;;;;;;7.38;4.97;;;;;11.20;99822.00;;;;5091909;28;20255;-85
2021/12/27 06:38:30;;;;;;;9.55;5.65;;;;;11.20;99824.00;;;;5091467;28;20242;-85
2021/12/27 06:40:58;;;;;;;11.23;4.72;;;;;11.30;99811.00;;;;5090980;28;20209;-85
2021/12/27 06:43:25;;;;;;;8.30;5.20;;;;;11.30;99822.00;;;;5088999;28;20248;-85
2021/12/27 06:45:53;;;;;;;6.63;4.43;;;;;11.30;99802.00;;;;5088917;28;20199;-84
2021/12/27 06:48:20;;;;;;;8.27;5.45;;;;;11.30;99811.00;;;;5089164;28;20213;-85
2021/12/27 06:50:48;;;;;;;8.27;5.00;;;;;11.30;99808.00;;;;5090167;28;20230;-85
2021/12/27 06:53:16;;;;;;;8.32;5.30;;;;;11.30;99801.00;;;;5089643;28;20236;-85
2021/12/27 06:55:45;;;;;;;7.82;5.22;;;;;11.30;99811.00;;;;5089945;28;20276;-85
2021/12/27 06:58:13;;;;;;;9.60;5.82;;;;;11.30;99801.00;;;;5090440;28;20205;-85
2021/12/27 07:00:41;;;;;;;9.50;5.55;;;;;11.30;99800.00;;;;5090361;28;20203;-84
2021/12/27 07:03:08;;;;;;;9.05;5.57;;;;;11.30;99798.00;;;;5090336;28;20236;-83
2021/12/27 07:05:35;;;;;;;11.30;4.97;;;;;11.40;99802.00;;;;5089447;28;20209;-84
2021/12/27 07:08:03;;;;;;;7.57;4.75;;;;;11.40;99804.00;;;;5096853;28;20205;-84
2021/12/27 07:10:31;;;;;;;9.35;4.82;;;;;11.40;99793.00;;;;5110508;28;20600;-83
2021/12/27 07:13:02;;;;;;;8.43;4.93;;;;;11.40;99787.00;;;;5119746;27;20247;-83
2021/12/27 07:15:29;;;;;;;8.10;5.20;;;;;11.40;99798.00;;;;5110345;28;20267;-84
2021/12/27 07:17:56;;;;;;;9.65;5.90;;;;;11.40;99795.00;;;;5109499;28;20201;-84
2021/12/27 07:20:24;;;;;;;7.72;4.97;;;;;11.40;99799.00;;;;5110003;28;20672;-84
2021/12/27 07:22:51;;;;;;;8.15;5.00;;;;;11.40;99795.00;;;;5110338;28;20198;-84
2021/12/27 07:25:18;;;;;;;8.75;4.80;;;;;11.50;99801.00;;;;5110060;28;20250;-84
2021/12/27 07:27:46;;;;;;;8.23;5.60;;;;;11.50;99794.00;;;;5089573;28;20194;-84
2021/12/27 07:30:15;;;;;;;7.65;5.65;;;;;11.50;99793.00;;;;5090136;28;20206;-84
2021/12/27 07:32:42;;;;;;;8.60;5.22;;;;;11.50;99798.00;;;;5089389;28;20205;-85
2021/12/27 07:35:10;;;;;;;9.52;6.47;;;;;11.50;99798.00;;;;5089090;28;20202;-85
2021/12/27 07:37:38;;;;;;;7.50;5.07;;;;;11.60;99798.00;;;;5088539;28;20237;-84
2021/12/27 07:40:07;;;;;;;7.78;4.97;;;;;11.60;99801.00;;;;5089667;28;20203;-85
2021/12/27 07:42:50;;;;;;;8.05;5.38;;;;;11.50;99798.00;;;;5089173;28;20198;-85
2021/12/27 07:45:19;;;;;;;7.10;4.88;;;;;11.60;99795.00;;;;5089761;28;20213;-85
2021/12/27 07:47:51;;;;;;;7.10;4.70;;;;;11.60;99793.00;;;;5089128;28;20194;-85
2021/12/27 07:50:19;;;;;;;8.90;4.78;;;;;11.60;99787.00;;;;5089377;28;20201;-85
2021/12/27 07:52:46;;;;;;;6.93;4.63;;;;;11.60;99797.00;;;;5089471;28;20209;-85
2021/12/27 07:55:13;;;;;;;8.18;5.40;;;;;11.70;99791.00;;;;5089303;28;20669;-86
2021/12/27 07:57:40;;;;;;;7.25;4.57;;;;;11.70;99793.00;;;;5088441;28;20615;-84
2021/12/27 08:00:10;;;;;;;7.45;4.68;;;;;11.70;99787.00;;;;5089577;28;20205;-85
2021/12/27 08:02:39;;;;;;;9.30;5.68;;;;;11.70;99792.00;;;;5088960;28;20213;-85
2021/12/27 08:05:07;;;;;;;7.93;4.82;;;;;11.80;99782.00;;;;5089619;28;20211;-85
2021/12/27 08:07:34;;;;;;;7.95;5.07;;;;;11.80;99788.00;;;;5089480;28;20210;-85
2021/12/27 08:10:02;;;;;;;9.02;5.60;;;;;11.80;99781.00;;;;5088796;28;20603;-85
2021/12/27 08:12:29;;;;;;;12.75;5.28;;;;;11.80;99777.00;;;;5089669;28;20236;-85
2021/12/27 08:14:56;;;;;;;7.38;5.13;;;;;11.90;99777.00;;;;5089710;28;20202;-84
2021/12/27 08:17:24;;;;;;;9.23;5.20;;;;;11.90;99778.00;;;;5105807;27;20197;-84
2021/12/27 08:19:52;;;;;;;7.72;5.05;;;;;11.90;99784.00;;;;5110371;27;20533;-84
2021/12/27 08:22:20;;;;;;;8.60;5.45;;;;;11.90;99785.00;;;;5088911;28;20205;-85
2021/12/27 08:24:51;;;;;;;9.02;5.00;;;;;11.90;99786.00;;;;5089011;28;20190;-85
2021/12/27 08:27:20;;;;;;;10.80;6.57;;;;;11.90;99781.00;;;;5089453;28;20202;-84
2021/12/27 08:29:47;;;;;;;7.63;4.85;;;;;11.90;99786.00;;;;5088709;28;20203;-84
2021/12/27 08:32:14;;;;;;;9.95;5.97;;;;;12.00;99778.00;;;;5088896;28;20225;-85
2021/12/27 08:34:42;;;;;;;8.63;5.65;;;;;12.00;99781.00;;;;5088043;28;20194;-85
2021/12/27 08:37:11;;;;;;;8.63;5.65;;;;;12.00;99786.00;;;;5089469;28;20672;-84
2021/12/27 08:39:40;;;;;;;8.07;5.35;;;;;12.00;99788.00;;;;5088564;28;20291;-85
2021/12/27 08:42:08;;;;;;;9.70;5.85;;;;;12.00;99783.00;;;;5089564;28;20306;-85
2021/12/27 08:44:36;;;;;;;9.98;5.13;;;;;12.00;99778.00;;;;5087514;28;20539;-84
2021/12/27 08:47:04;;;;;;;8.45;5.50;;;;;12.00;99768.00;;;;5087441;28;20229;-84
2021/12/27 08:49:31;;;;;;;7.22;4.55;;;;;12.10;99781.00;;;;5089109;28;20195;-85
2021/12/27 08:51:59;;;;;;;9.70;6.13;;;;;12.10;99775.00;;;;5088460;28;20232;-85
2021/12/27 08:54:27;;;;;;;8.02;5.25;;;;;12.10;99779.00;;;;5088307;28;20215;-85
2021/12/27 08:56:54;;;;;;;7.43;5.60;;;;;12.10;99784.00;;;;5089170;28;20221;-85
2021/12/27 08:59:22;;;;;;;7.40;5.05;;;;;12.10;99782.00;;;;5088610;28;20669;-83
2021/12/27 09:01:49;;;;;;;8.40;5.28;;;;;12.10;99787.00;;;;5088684;28;20190;-84
2021/12/27 09:04:16;;;;;;;8.15;4.93;;;;;12.20;99798.00;;;;5088769;28;20201;-85
2021/12/27 09:06:44;;;;;;;8.68;5.80;;;;;12.20;99788.00;;;;5088335;28;20206;-85
2021/12/27 09:09:11;;;;;;;8.30;5.30;;;;;12.20;99793.00;;;;5088619;28;20255;-85
2021/12/27 09:11:40;;;;;;;7.68;5.13;;;;;12.20;99796.00;;;;5102225;28;20232;-86
2021/12/27 09:14:07;;;;;;;8.20;5.30;;;;;12.20;99787.00;;;;5108853;28;20568;-85
2021/12/27 09:16:35;;;;;;;6.63;4.85;;;;;12.20;99791.00;;;;5107840;28;20190;-84
2021/12/27 09:19:59;;;;;;;9.45;5.60;;;;;12.10;99777.00;;;;5109136;28;20286;-84
2021/12/27 09:22:29;;;;;;;6.18;4.78;;;;;12.20;99776.00;;;;5109997;28;20190;-85
2021/12/27 09:25:00;;;;;;;8.70;5.10;;;;;12.30;99784.00;;;;5107739;28;20197;-85
2021/12/27 09:27:28;;;;;;;7.75;5.75;;;;;12.30;99778.00;;;;5119508;28;20225;-85
2021/12/27 09:29:56;;;;;;;8.32;5.38;;;;;12.30;99771.00;;;;5088822;28;20205;-85
2021/12/27 09:32:23;;;;;;;6.70;5.25;;;;;12.30;99762.00;;;;5088557;28;20225;-85
2021/12/27 09:34:50;;;;;;;8.35;5.80;;;;;12.40;99759.00;;;;5088460;28;20198;-85
2021/12/27 09:37:18;;;;;;;8.77;5.43;;;;;12.40;99762.00;;;;5088543;28;20237;-85
2021/12/27 09:39:53;;;;;;;7.43;5.22;;;;;12.40;99753.00;;;;5087592;28;20236;-85
2021/12/27 09:42:21;;;;;;;7.05;5.00;;;;;12.50;99748.00;;;;5088139;28;20205;-85
2021/12/27 09:44:49;;;;;;;7.38;4.80;;;;;12.50;99741.00;;;;5088869;28;20250;-85
2021/12/27 09:47:17;;;;;;;6.20;4.82;;;;;12.50;99738.00;;;;5087893;28;20213;-84
2021/12/27 09:49:45;;;;;;;8.77;5.22;;;;;12.60;99747.00;;;;5088189;28;20198;-85
2021/12/27 09:52:13;;;;;;;9.68;5.85;;;;;12.60;99754.00;;;;5088417;28;20726;-84
2021/12/27 09:54:40;;;;;;;8.13;5.63;;;;;12.60;99754.00;;;;5087894;28;20206;-85
2021/12/27 09:57:12;;;;;;;8.90;5.85;;;;;12.70;99768.00;;;;5087980;28;20225;-85
2021/12/27 09:59:39;;;;;;;9.88;5.95;;;;;12.70;99775.00;;;;5090369;28;20198;-85
2021/12/27 10:02:08;;;;;;;9.63;6.05;;;;;12.70;99780.00;;;;5091900;28;20217;-85
2021/12/27 10:04:35;;;;;;;6.43;4.85;;;;;12.70;99782.00;;;;5091181;28;20201;-85
2021/12/27 10:07:03;;;;;;;7.50;5.28;;;;;12.70;99782.00;;;;5090942;28;20202;-85
2021/12/27 10:09:32;;;;;;;10.77;5.68;;;;;12.80;99778.00;;;;5090585;28;20206;-85
2021/12/27 10:12:00;;;;;;;7.65;5.40;;;;;12.80;99775.00;;;;5091354;28;20230;-85
2021/12/27 10:14:27;;;;;;;6.30;4.78;;;;;12.80;99753.00;;;;5090989;28;20264;-84
2021/12/27 10:17:05;;;;;;;6.72;4.88;;;;;12.80;99755.00;;;;5099290;28;20206;-84
2021/12/27 10:19:36;;;;;;;7.38;5.15;;;;;12.90;99743.00;;;;5097369;28;20213;-84
2021/12/27 10:22:04;;;;;;;8.10;5.65;;;;;12.90;99736.00;;;;5091179;28;20194;-85
2021/12/27 10:24:32;;;;;;;8.13;5.20;;;;;12.90;99740.00;;;;5090203;28;20251;-85
2021/12/27 10:27:01;;;;;;;7.78;5.25;;;;;13.00;99726.00;;;;5090502;28;20217;-84
2021/12/27 10:29:30;;;;;;;7.53;5.28;;;;;13.00;99730.00;;;;5090452;28;20221;-83
2021/12/27 10:32:00;;;;;;;11.70;5.88;;;;;13.10;99725.00;;;;5090033;28;20257;-86
2021/12/27 10:34:30;;;;;;;7.10;5.28;;;;;13.10;99713.00;;;;5105529;27;20189;-84
2021/12/27 10:37:07;;;;;;;8.55;6.03;;;;;13.20;99714.00;;;;5124184;27;20216;-85
2021/12/27 10:39:48;;;;;;;9.77;5.75;;;;;13.20;99707.00;;;;5131026;27;20577;-85
2021/12/27 10:42:17;;;;;;;9.35;5.30;;;;;13.30;99705.00;;;;5131902;27;20192;-83
2021/12/27 10:44:45;;;;;;;8.50;5.60;;;;;13.30;99696.00;;;;5130594;27;20253;-83
2021/12/27 10:47:27;;;;;;;6.55;5.40;;;;;13.20;99684.00;;;;5131397;27;20204;-84
2021/12/27 10:49:55;;;;;;;7.18;5.03;;;;;13.30;99682.00;;;;5131012;27;20197;-84
2021/12/27 10:52:48;;;;;;;6.57;5.00;;;;;13.30;99691.00;;;;5123235;27;20230;-84
2021/12/27 10:55:17;;;;;;;6.90;5.22;;;;;13.40;99688.00;;;;5090475;28;20201;-85
2021/12/27 10:57:44;;;;;;;7.32;5.30;;;;;13.40;99700.00;;;;5089967;28;20226;-85
2021/12/27 11:00:27;;;;;;;7.75;5.35;;;;;13.30;99708.00;;;;5089325;28;20217;-85
2021/12/27 11:03:02;;;;;;;7.50;5.40;;;;;13.30;99707.00;;;;5090127;28;20680;-84
2021/12/27 11:05:30;;;;;;;7.78;5.13;;;;;13.40;99702.00;;;;5089786;28;20197;-86
2021/12/27 11:08:01;;;;;;;6.60;4.85;;;;;13.40;99698.00;;;;5089063;28;20213;-84
2021/12/27 11:10:31;;;;;;;8.30;5.35;;;;;13.40;99698.00;;;;5101875;28;20209;-85
2021/12/27 11:13:04;;;;;;;7.20;5.13;;;;;13.40;99696.00;;;;5110488;28;20225;-85
2021/12/27 11:15:34;;;;;;;7.28;4.97;;;;;13.40;99686.00;;;;5109412;28;20251;-85
2021/12/27 11:18:06;;;;;;;6.88;5.38;;;;;13.40;99684.00;;;;5109511;28;20212;-85
2021/12/27 11:20:35;;;;;;;6.28;4.78;;;;;13.50;99684.00;;;;5109535;28;20277;-85
2021/12/27 11:23:06;;;;;;;5.43;4.22;;;;;13.50;99690.00;;;;5109498;28;20192;-85
2021/12/27 11:25:37;;;;;;;7.05;5.18;;;;;13.50;99684.00;;;;5108846;28;20193;-85
2021/12/27 11:28:23;;;;;;;6.13;4.22;;;;;13.50;99684.00;;;;5091719;28;20202;-86
2021/12/27 11:30:53;;;;;;;5.20;4.15;;;;;13.50;99688.00;;;;5089076;28;20229;-84
2021/12/27 11:33:22;;;;;;;6.53;4.90;;;;;13.50;99687.00;;;;5088983;28;20711;-85
2021/12/27 11:36:10;;;;;;;6.03;3.97;;;;;13.50;99684.00;;;;5088001;28;20193;-85
2021/12/27 11:38:42;;;;;;;4.78;3.75;;;;;13.60;99676.00;;;;5082636;28;20218;-86
2021/12/27 11:41:32;;;;;;;5.75;3.95;;;;;13.60;99675.00;;;;5089259;28;20202;-86
2021/12/27 11:44:02;;;;;;;5.32;4.10;;;;;13.70;99673.00;;;;5102170;27;20190;-85
2021/12/27 11:46:32;;;;;;;4.88;4.05;;;;;13.80;99660.00;;;;5109012;28;20243;-84
2021/12/27 11:49:00;;;;;;;5.32;4.13;;;;;13.80;99652.00;;;;5108940;28;20204;-84
2021/12/27 11:51:34;;;;;;;6.95;4.90;;;;;13.80;99647.00;;;;5109696;28;20197;-85
2021/12/27 11:54:04;;;;;;;4.90;3.63;;;;;13.80;99647.00;;;;5108950;28;20841;-85
2021/12/27 11:56:52;;;;;;;5.18;3.78;;;;;13.80;99653.00;;;;5108719;28;20217;-85
2021/12/27 11:59:35;;;;;;;6.22;4.72;;;;;13.80;99656.00;;;;5103242;28;20203;-85
2021/12/27 12:02:23;;;;;;;5.75;4.03;;;;;13.90;99647.00;;;;5091236;28;20717;-85
2021/12/27 12:04:53;;;;;;;5.50;4.07;;;;;13.90;99640.00;;;;5089944;28;20209;-85
2021/12/27 12:07:54;;;;;;;5.93;4.20;;;;;13.90;99635.00;;;;5089117;28;20195;-84
2021/12/27 12:10:23;;;;;;;4.55;3.58;;;;;14.00;99640.00;;;;5086250;28;20604;-85
2021/12/27 12:13:17;;;;;;;6.60;3.95;;;;;13.90;99629.00;;;;5089141;28;20232;-85
2021/12/27 12:16:08;;;;;;;4.97;3.80;;;;;13.90;99624.00;;;;5088914;28;20232;-83
2021/12/27 12:18:39;;;;;;;4.63;3.70;;;;;14.00;99613.00;;;;5088947;28;20263;-85
2021/12/27 12:21:07;;;;;;;4.82;3.95;;;;;14.00;99611.00;;;;5088401;28;20198;-83
2021/12/27 12:23:38;;;;;;;6.05;4.15;;;;;14.10;99605.00;;;;5089233;28;20202;-83
2021/12/27 12:26:07;;;;;;;5.07;3.75;;;;;14.10;99605.00;;;;5089524;28;20241;-83